Time;durP1;ratioP1;P1;durP2;ratioP2;P2;SDS_P1;SDS_P2;PMS_P1;PMS_P2;Temp;Humidity;BMP_temperature;BMP_pressure;BME280_temperature;BME280_humidity;BME280_pressure;Samples;Min_cycle;Max_cycle;Signal;HPM_P1;HPM_P2
2022/11/20 00:01:56;;;;;;;25.42;15.15;;;-0.10;99.90;;;;;;5070751;28;20044;-81
2022/11/20 00:04:22;;;;;;;27.27;15.85;;;-0.20;99.90;;;;;;5070583;28;20051;-83
2022/11/20 00:06:48;;;;;;;24.90;15.63;;;-0.10;99.90;;;;;;5087140;28;20444;-82
2022/11/20 00:09:13;;;;;;;22.63;15.73;;;-0.10;99.90;;;;;;5080100;28;20101;-82
2022/11/20 00:11:39;;;;;;;23.92;15.82;;;-0.10;99.90;;;;;;5089206;28;20063;-82
2022/11/20 00:14:04;;;;;;;21.25;14.00;;;0.00;99.90;;;;;;5072430;28;20043;-83
2022/11/20 00:16:32;;;;;;;22.95;13.63;;;0.00;99.90;;;;;;5085664;28;20090;-81
2022/11/20 00:18:58;;;;;;;19.45;12.95;;;-0.10;99.90;;;;;;5067651;28;20513;-80
2022/11/20 00:21:27;;;;;;;19.52;13.30;;;0.00;99.90;;;;;;5071473;28;20051;-80
2022/11/20 00:23:55;;;;;;;18.70;12.75;;;0.00;99.90;;;;;;5072865;28;20405;-81
2022/11/20 00:26:22;;;;;;;21.92;13.85;;;0.00;99.90;;;;;;5092090;28;20040;-83
2022/11/20 00:28:58;;;;;;;24.20;14.02;;;-0.10;99.90;;;;;;5070655;28;20035;-82
2022/11/20 00:31:24;;;;;;;19.52;13.20;;;-0.10;99.90;;;;;;5078754;28;20122;-83
2022/11/20 00:33:50;;;;;;;23.33;13.45;;;0.10;99.90;;;;;;5090162;28;20036;-79
2022/11/20 00:36:18;;;;;;;24.00;14.18;;;-0.10;99.90;;;;;;5118812;27;20032;-80
2022/11/20 00:38:45;;;;;;;24.00;15.82;;;0.00;99.90;;;;;;5101721;28;20087;-81
2022/11/20 00:41:14;;;;;;;22.88;16.00;;;0.10;99.90;;;;;;5068798;28;20032;-83
2022/11/20 00:43:40;;;;;;;28.02;16.48;;;0.10;99.90;;;;;;5076804;28;20123;-80
2022/11/20 00:46:12;;;;;;;25.17;16.85;;;-0.10;99.90;;;;;;5069100;28;20131;-79
2022/11/20 00:48:38;;;;;;;27.05;15.32;;;-0.10;99.90;;;;;;5117780;27;20044;-79
2022/11/20 00:51:04;;;;;;;29.33;16.55;;;-0.10;99.90;;;;;;5087809;28;20036;-80
2022/11/20 00:53:30;;;;;;;23.85;16.05;;;-0.10;99.90;;;;;;5072197;28;20063;-81
2022/11/20 00:55:57;;;;;;;26.98;17.23;;;0.00;99.90;;;;;;5090197;28;20052;-83
2022/11/20 00:58:43;;;;;;;27.80;16.95;;;-0.30;99.90;;;;;;5089996;28;20040;-82
2022/11/20 01:01:14;;;;;;;25.35;17.15;;;-0.10;99.90;;;;;;5072950;28;20115;-84
2022/11/20 01:03:42;;;;;;;26.83;17.77;;;-0.20;99.90;;;;;;5084896;28;20036;-81
2022/11/20 01:06:19;;;;;;;27.25;17.65;;;-0.10;99.90;;;;;;5072171;28;20040;-79
2022/11/20 01:08:45;;;;;;;28.50;17.58;;;-0.10;99.90;;;;;;5092795;28;20035;-82
2022/11/20 01:11:19;;;;;;;27.67;17.35;;;-0.30;99.90;;;;;;5069794;28;20031;-84
2022/11/20 01:13:46;;;;;;;;;;;-0.30;99.90;;;;;;5087017;28;20128;-81
2022/11/20 01:16:20;;;;;;;24.20;16.67;;;-0.20;99.90;;;;;;5102219;28;20319;-82
2022/11/20 01:18:48;;;;;;;29.02;16.17;;;-0.10;99.90;;;;;;5067755;28;20063;-80
2022/11/20 01:21:19;;;;;;;23.58;16.35;;;-0.10;99.90;;;;;;5085483;28;20048;-83
2022/11/20 01:23:47;;;;;;;24.48;16.52;;;-0.10;99.90;;;;;;5087154;28;20052;-80
2022/11/20 01:26:15;;;;;;;28.95;16.70;;;-0.20;99.90;;;;;;5079485;28;20067;-81
2022/11/20 01:28:41;;;;;;;28.52;16.08;;;-0.20;99.90;;;;;;5083981;28;20040;-81
2022/11/20 01:31:11;;;;;;;26.73;17.17;;;0.00;99.90;;;;;;5067160;28;20547;-81
2022/11/20 01:33:37;;;;;;;25.45;17.00;;;0.00;99.90;;;;;;5079426;28;20036;-82
2022/11/20 01:36:05;;;;;;;25.58;17.00;;;-0.30;99.90;;;;;;5071348;28;20530;-82
2022/11/20 01:38:30;;;;;;;27.45;16.50;;;-0.30;99.90;;;;;;5112395;27;20047;-83
2022/11/20 01:40:56;;;;;;;26.95;16.83;;;-0.20;99.90;;;;;;5083815;28;20032;-83
2022/11/20 01:43:24;;;;;;;26.77;16.25;;;-0.10;99.90;;;;;;5085088;28;20075;-82
2022/11/20 01:46:00;;;;;;;26.45;16.70;;;0.00;99.90;;;;;;5113358;27;20056;-82
2022/11/20 01:48:43;;;;;;;24.42;16.48;;;-0.10;99.90;;;;;;5078420;28;20052;-81
2022/11/20 01:51:39;;;;;;;24.52;16.23;;;-0.20;99.90;;;;;;5094968;28;20748;-79
2022/11/20 01:54:13;;;;;;;28.52;16.42;;;-0.30;99.90;;;;;;5100640;28;20047;-79
2022/11/20 01:56:48;;;;;;;25.60;16.58;;;0.00;99.90;;;;;;5088204;28;20036;-82
2022/11/20 01:59:33;;;;;;;25.20;16.33;;;-0.30;99.90;;;;;;5089724;28;20134;-83
2022/11/20 02:01:58;;;;;;;27.48;16.85;;;-0.30;99.90;;;;;;5086825;28;20055;-83
2022/11/20 02:04:24;;;;;;;26.10;17.13;;;-0.20;99.90;;;;;;5096195;28;20036;-81
2022/11/20 02:06:59;;;;;;;26.75;17.38;;;-0.10;99.90;;;;;;5088656;28;20542;-83
2022/11/20 02:09:26;;;;;;;29.67;17.38;;;-0.30;99.90;;;;;;5088567;28;20119;-80
2022/11/20 02:11:53;;;;;;;27.70;17.55;;;-0.30;99.90;;;;;;5089644;28;20040;-80
2022/11/20 02:14:19;;;;;;;26.65;16.90;;;0.00;99.90;;;;;;5073431;28;20044;-86
2022/11/20 02:16:47;;;;;;;24.70;16.88;;;0.00;99.90;;;;;;5099097;28;20169;-82
2022/11/20 02:19:36;;;;;;;29.27;16.48;;;-0.30;99.90;;;;;;5085770;28;20047;-81
2022/11/20 02:22:28;;;;;;;26.17;16.63;;;-0.30;99.90;;;;;;5116074;27;20047;-84
2022/11/20 02:24:55;;;;;;;25.38;16.60;;;-0.30;99.90;;;;;;5082042;28;20458;-83
2022/11/20 02:27:22;;;;;;;25.40;16.13;;;-0.20;99.90;;;;;;5103610;28;20051;-81
2022/11/20 02:30:00;;;;;;;26.42;16.85;;;-0.20;99.90;;;;;;5107878;28;20387;-84
2022/11/20 02:32:34;;;;;;;25.42;15.68;;;-0.20;99.90;;;;;;5067138;28;20040;-84
2022/11/20 02:35:29;;;;;;;24.23;16.65;;;0.00;99.90;;;;;;5067863;28;20048;-81
2022/11/20 02:37:59;;;;;;;24.07;16.23;;;-0.20;99.90;;;;;;5090313;28;20079;-83
2022/11/20 02:40:25;;;;;;;22.63;15.55;;;0.00;99.90;;;;;;5109173;28;20391;-85
2022/11/20 02:42:55;;;;;;;25.38;15.18;;;0.00;99.90;;;;;;5105196;28;20097;-82
2022/11/20 02:45:26;;;;;;;22.35;15.60;;;-0.10;99.90;;;;;;5090878;28;20040;-85
2022/11/20 02:47:52;;;;;;;27.70;15.95;;;-0.10;99.90;;;;;;5090824;28;20574;-81
2022/11/20 02:50:18;;;;;;;23.10;15.25;;;0.00;99.90;;;;;;5089037;28;20051;-86
2022/11/20 02:52:44;;;;;;;23.42;15.20;;;0.10;99.90;;;;;;5089745;28;20044;-83
2022/11/20 02:55:12;;;;;;;27.73;15.63;;;-0.10;99.90;;;;;;5056591;28;20044;-84
2022/11/20 02:57:37;;;;;;;24.38;15.68;;;0.10;99.90;;;;;;5095253;28;20498;-80
2022/11/20 03:00:04;;;;;;;24.17;15.73;;;0.00;99.90;;;;;;5127319;27;20067;-83
2022/11/20 03:02:31;;;;;;;22.70;15.32;;;0.00;99.90;;;;;;5093284;28;20366;-84
2022/11/20 03:04:57;;;;;;;24.10;15.82;;;0.00;99.90;;;;;;5093781;28;20036;-84
2022/11/20 03:07:26;;;;;;;24.98;15.48;;;0.10;99.90;;;;;;5089700;28;20076;-81
2022/11/20 03:09:52;;;;;;;21.33;15.20;;;0.00;99.90;;;;;;5096204;28;20078;-84
2022/11/20 03:12:17;;;;;;;24.48;14.80;;;0.00;99.90;;;;;;5127552;27;20696;-80
2022/11/20 03:14:43;;;;;;;27.65;15.63;;;0.10;99.90;;;;;;5093782;28;20101;-85
2022/11/20 03:17:09;;;;;;;23.48;15.27;;;0.10;99.90;;;;;;5092211;28;20101;-84
2022/11/20 03:19:34;;;;;;;23.40;14.63;;;-0.10;99.90;;;;;;5092764;28;20051;-83
2022/11/20 03:22:00;;;;;;;24.45;15.57;;;0.10;99.90;;;;;;5109950;28;20040;-83
2022/11/20 03:24:26;;;;;;;26.15;15.73;;;0.10;99.90;;;;;;5103932;28;20057;-84
2022/11/20 03:26:52;;;;;;;25.25;15.85;;;0.00;99.90;;;;;;5073132;28;20044;-82
2022/11/20 03:29:18;;;;;;;24.42;15.23;;;-0.10;99.90;;;;;;5092164;28;20133;-83
2022/11/20 03:31:43;;;;;;;23.13;15.35;;;0.10;99.90;;;;;;5099713;28;20116;-81
2022/11/20 03:34:11;;;;;;;21.80;14.85;;;0.10;99.90;;;;;;5078203;28;20040;-81
2022/11/20 03:36:41;;;;;;;24.17;14.60;;;0.10;99.90;;;;;;5112711;28;20055;-81
2022/11/20 03:39:09;;;;;;;22.77;15.40;;;0.00;99.90;;;;;;5101789;28;20044;-81
2022/11/20 03:41:41;;;;;;;24.67;15.10;;;0.00;99.90;;;;;;5095124;28;20493;-83
2022/11/20 03:44:09;;;;;;;25.30;14.77;;;0.00;99.90;;;;;;5095414;28;20069;-81
2022/11/20 03:46:34;;;;;;;22.40;14.55;;;0.10;99.90;;;;;;5094817;28;20059;-83
2022/11/20 03:49:00;;;;;;;22.88;14.60;;;0.10;99.90;;;;;;5094271;28;20044;-82
2022/11/20 03:51:30;;;;;;;21.60;14.55;;;-0.10;99.90;;;;;;5095849;28;20042;-80
2022/11/20 03:54:00;;;;;;;20.77;14.20;;;0.10;99.90;;;;;;5108279;27;20127;-84
2022/11/20 03:56:30;;;;;;;19.80;13.98;;;0.10;99.90;;;;;;5074498;28;20098;-82
2022/11/20 04:02:37;;;;;;;19.65;13.77;;;0.20;99.90;;;;;;5091231;28;20031;-83
2022/11/20 04:05:03;;;;;;;20.73;13.43;;;0.10;99.90;;;;;;5077171;28;20040;-82
2022/11/20 04:07:28;;;;;;;21.35;14.05;;;0.00;99.90;;;;;;5074139;28;20344;-82
2022/11/20 04:09:54;;;;;;;20.77;14.40;;;0.20;99.90;;;;;;5083243;28;20036;-82
2022/11/20 04:12:20;;;;;;;23.60;13.23;;;0.10;99.90;;;;;;5103128;28;20040;-82
2022/11/20 04:14:46;;;;;;;22.70;12.77;;;0.00;99.90;;;;;;5110121;28;20048;-84
2022/11/20 04:17:11;;;;;;;21.88;13.77;;;0.00;99.90;;;;;;5093231;28;20101;-80
2022/11/20 04:19:37;;;;;;;20.30;13.85;;;0.30;99.90;;;;;;5074871;28;20123;-84
2022/11/20 04:22:03;;;;;;;22.83;14.07;;;0.10;99.90;;;;;;5104850;28;20606;-82
2022/11/20 04:24:29;;;;;;;20.27;13.45;;;0.10;99.90;;;;;;5077892;28;20047;-84
2022/11/20 04:26:54;;;;;;;17.58;12.68;;;0.20;99.90;;;;;;5094182;28;20067;-81
2022/11/20 04:29:20;;;;;;;23.35;13.27;;;0.20;99.90;;;;;;5092525;28;20129;-85
2022/11/20 04:31:46;;;;;;;18.60;12.82;;;0.10;99.90;;;;;;5077143;28;20419;-82
2022/11/20 04:34:12;;;;;;;20.67;13.18;;;0.30;99.90;;;;;;5072053;28;20040;-85
2022/11/20 04:36:38;;;;;;;17.55;12.48;;;0.20;99.90;;;;;;5070079;28;20040;-81
2022/11/20 04:39:06;;;;;;;20.30;12.90;;;0.10;99.90;;;;;;5090654;28;20047;-81
2022/11/20 04:41:34;;;;;;;19.17;13.10;;;0.30;99.90;;;;;;5091443;28;20031;-83
2022/11/20 04:44:03;;;;;;;17.77;12.18;;;0.20;99.90;;;;;;5074456;28;20036;-81
2022/11/20 04:46:33;;;;;;;18.27;12.90;;;0.20;99.90;;;;;;5054847;28;20063;-82
2022/11/20 04:49:04;;;;;;;17.52;12.02;;;0.30;99.90;;;;;;5073700;28;20040;-83
2022/11/20 04:51:30;;;;;;;18.85;13.15;;;0.30;99.90;;;;;;5074735;28;20051;-80
2022/11/20 04:53:56;;;;;;;18.80;12.25;;;0.20;99.90;;;;;;5062872;28;20032;-80
2022/11/20 04:56:22;;;;;;;17.38;12.07;;;0.20;99.90;;;;;;5091902;28;20098;-82
2022/11/20 04:58:48;;;;;;;16.40;12.23;;;0.30;99.90;;;;;;5092088;28;20036;-81
2022/11/20 05:01:21;;;;;;;21.20;13.25;;;0.30;99.90;;;;;;5075951;28;20127;-80
2022/11/20 05:03:47;;;;;;;17.70;12.15;;;0.20;99.90;;;;;;5073605;28;20067;-79
2022/11/20 05:06:16;;;;;;;20.25;12.20;;;0.20;99.90;;;;;;5071252;28;20062;-81
2022/11/20 05:08:42;;;;;;;18.83;11.73;;;0.20;99.90;;;;;;5118641;27;20040;-81
2022/11/20 05:11:16;;;;;;;17.00;11.50;;;0.20;99.90;;;;;;5106411;28;20035;-85
2022/11/20 05:13:45;;;;;;;19.55;12.20;;;0.20;99.90;;;;;;5086999;28;20044;-80
2022/11/20 05:16:13;;;;;;;16.98;11.13;;;0.20;99.90;;;;;;5071609;28;20039;-83
2022/11/20 05:18:39;;;;;;;16.60;11.82;;;0.30;99.90;;;;;;5088386;28;20047;-82
2022/11/20 05:21:06;;;;;;;17.77;12.07;;;0.30;99.90;;;;;;5107508;28;20059;-81
2022/11/20 05:23:33;;;;;;;16.38;11.98;;;0.20;99.90;;;;;;5089767;28;20082;-84
2022/11/20 05:25:59;;;;;;;14.88;11.38;;;0.30;99.90;;;;;;5091138;28;20398;-82
2022/11/20 05:28:26;;;;;;;15.57;11.45;;;0.30;99.90;;;;;;5074299;28;20104;-85
2022/11/20 05:30:51;;;;;;;18.88;12.48;;;0.30;99.90;;;;;;5089844;28;20039;-80
2022/11/20 05:33:17;;;;;;;17.13;12.52;;;0.30;99.90;;;;;;5085780;28;20036;-84
2022/11/20 05:35:43;;;;;;;18.50;12.23;;;0.30;99.90;;;;;;5073967;28;20055;-82
2022/11/20 05:38:13;;;;;;;17.77;11.98;;;0.40;99.90;;;;;;5091605;28;20142;-83
2022/11/20 05:40:39;;;;;;;17.85;11.52;;;0.30;99.90;;;;;;5093204;28;20173;-83
2022/11/20 05:43:04;;;;;;;19.38;11.80;;;0.30;99.90;;;;;;5094157;28;20386;-83
2022/11/20 05:45:30;;;;;;;17.58;12.63;;;0.20;99.90;;;;;;5091768;28;20109;-82
2022/11/20 05:48:00;;;;;;;15.80;11.02;;;0.30;99.90;;;;;;5108300;28;20052;-84
2022/11/20 05:50:26;;;;;;;16.65;11.38;;;0.40;99.90;;;;;;5125040;27;20127;-83
2022/11/20 05:52:52;;;;;;;15.50;11.35;;;0.30;99.90;;;;;;5117571;27;20032;-82
2022/11/20 05:55:17;;;;;;;16.75;11.50;;;0.30;99.90;;;;;;5081025;28;20036;-80
2022/11/20 05:57:43;;;;;;;14.85;11.10;;;0.40;99.90;;;;;;5091670;28;20039;-82
2022/11/20 06:00:09;;;;;;;15.60;10.95;;;0.30;99.90;;;;;;5112686;28;20053;-82
2022/11/20 06:02:35;;;;;;;14.30;10.63;;;0.30;99.90;;;;;;5118198;27;20119;-78
2022/11/20 06:05:01;;;;;;;15.95;11.10;;;0.30;99.90;;;;;;5094861;28;20085;-79
2022/11/20 06:07:27;;;;;;;14.70;10.63;;;0.30;99.90;;;;;;5090145;28;20040;-83
2022/11/20 06:09:53;;;;;;;15.13;11.27;;;0.30;99.90;;;;;;5089886;28;20066;-81
2022/11/20 06:12:18;;;;;;;15.02;10.25;;;0.30;99.90;;;;;;5124330;27;20162;-85
2022/11/20 06:14:44;;;;;;;15.60;10.52;;;0.20;99.90;;;;;;5084185;28;20119;-84
2022/11/20 06:17:10;;;;;;;17.13;10.73;;;0.20;99.90;;;;;;5068364;28;20127;-80
2022/11/20 06:19:39;;;;;;;16.02;10.48;;;0.40;99.90;;;;;;5081673;28;20055;-82
2022/11/20 06:22:05;;;;;;;17.02;10.85;;;0.30;99.90;;;;;;5089290;28;20132;-82
2022/11/20 06:24:30;;;;;;;13.75;10.35;;;0.40;99.90;;;;;;5088050;28;20089;-86
2022/11/20 06:26:56;;;;;;;16.00;10.73;;;0.30;99.90;;;;;;5072398;28;20121;-80
2022/11/20 06:29:21;;;;;;;13.80;10.20;;;0.20;99.90;;;;;;5069586;28;20028;-84
2022/11/20 06:31:47;;;;;;;14.90;10.45;;;0.40;99.90;;;;;;5072202;28;20123;-82
2022/11/20 06:34:13;;;;;;;14.52;9.95;;;0.40;99.90;;;;;;5089042;28;20114;-82
2022/11/20 06:36:38;;;;;;;14.13;10.63;;;0.30;99.90;;;;;;5106571;28;20155;-84
2022/11/20 06:39:04;;;;;;;14.80;10.32;;;0.30;99.90;;;;;;5071506;28;20455;-81
2022/11/20 06:41:30;;;;;;;14.32;10.32;;;0.40;99.90;;;;;;5099173;28;20225;-84
2022/11/20 06:44:03;;;;;;;13.45;10.13;;;0.30;99.90;;;;;;5072380;28;20131;-83
2022/11/20 06:46:28;;;;;;;15.07;10.20;;;0.30;99.90;;;;;;5074587;28;20044;-84
2022/11/20 06:48:54;;;;;;;14.75;10.68;;;0.30;99.90;;;;;;5087928;28;20516;-83
2022/11/20 06:51:21;;;;;;;14.60;10.48;;;0.40;99.90;;;;;;5069910;28;20044;-82
2022/11/20 06:53:48;;;;;;;14.27;10.07;;;0.40;99.90;;;;;;5070344;28;20047;-84
2022/11/20 06:56:14;;;;;;;13.25;9.60;;;0.30;99.90;;;;;;5086784;28;20043;-83
2022/11/20 06:58:40;;;;;;;15.25;10.40;;;0.40;99.90;;;;;;5081449;28;20055;-81
2022/11/20 07:01:10;;;;;;;13.02;10.18;;;0.50;99.90;;;;;;5083315;28;20085;-82
2022/11/20 07:03:36;;;;;;;18.23;10.55;;;0.50;99.90;;;;;;5096408;28;20035;-82
2022/11/20 07:06:03;;;;;;;15.07;10.45;;;0.40;99.90;;;;;;5082334;28;20079;-81
2022/11/20 07:08:29;;;;;;;14.38;10.30;;;0.40;99.90;;;;;;5085202;28;20063;-83
2022/11/20 07:10:59;;;;;;;11.85;9.40;;;0.40;99.90;;;;;;5117018;28;20507;-83
2022/11/20 07:13:25;;;;;;;14.05;9.98;;;0.40;99.90;;;;;;5081625;28;20036;-81
2022/11/20 07:15:55;;;;;;;14.45;10.57;;;0.50;99.90;;;;;;5086370;28;20044;-84
2022/11/20 07:18:21;;;;;;;14.88;10.57;;;0.60;99.90;;;;;;5085780;28;20068;-82
2022/11/20 07:20:47;;;;;;;18.15;9.75;;;0.60;99.90;;;;;;5088422;28;20485;-81
2022/11/20 07:23:12;;;;;;;12.88;9.82;;;0.60;99.90;;;;;;5085788;28;20501;-82
2022/11/20 07:25:38;;;;;;;14.45;10.27;;;0.60;99.90;;;;;;5092656;28;20044;-84
2022/11/20 07:28:04;;;;;;;15.13;10.15;;;0.60;99.90;;;;;;5091771;28;20135;-83
2022/11/20 07:30:53;;;;;;;13.80;9.98;;;0.70;99.90;;;;;;5072102;28;20056;-79
2022/11/20 07:33:19;;;;;;;14.10;9.68;;;0.60;99.90;;;;;;5077924;28;20072;-82
2022/11/20 07:35:45;;;;;;;15.18;10.30;;;0.60;99.90;;;;;;5092697;28;20040;-80
2022/11/20 07:38:10;;;;;;;14.57;10.05;;;0.70;99.90;;;;;;5076239;28;20559;-83
2022/11/20 07:40:36;;;;;;;14.90;10.95;;;0.70;99.90;;;;;;5086855;28;20040;-80
2022/11/20 07:43:02;;;;;;;19.50;10.68;;;0.70;99.90;;;;;;5090414;28;20032;-82
2022/11/20 07:45:27;;;;;;;18.17;10.65;;;0.60;99.90;;;;;;5083803;28;20699;-81
2022/11/20 07:47:53;;;;;;;13.70;10.27;;;0.70;99.90;;;;;;5085934;28;20048;-86
2022/11/20 07:50:19;;;;;;;19.67;10.35;;;0.70;99.90;;;;;;5120068;27;20366;-82
2022/11/20 07:52:45;;;;;;;15.35;10.25;;;0.80;99.90;;;;;;5072208;28;20063;-81
2022/11/20 07:55:11;;;;;;;17.00;10.15;;;0.70;99.90;;;;;;5089013;28;20082;-80
2022/11/20 07:57:37;;;;;;;15.90;10.45;;;0.70;99.90;;;;;;5086650;28;20075;-79
2022/11/20 08:00:04;;;;;;;13.13;9.98;;;0.70;99.90;;;;;;5085488;28;20166;-79
2022/11/20 08:02:30;;;;;;;16.02;9.77;;;0.70;99.90;;;;;;5085898;28;20044;-82
2022/11/20 08:04:56;;;;;;;14.55;10.10;;;0.80;99.90;;;;;;5117539;27;20112;-83
2022/11/20 08:07:21;;;;;;;16.45;10.57;;;0.80;99.90;;;;;;5085872;28;20040;-83
2022/11/20 08:09:47;;;;;;;15.38;10.80;;;0.90;99.90;;;;;;5087370;28;20047;-84
2022/11/20 08:15:05;;;;;;;16.33;10.63;;;0.90;99.90;;;;;;5088021;28;20123;-84
2022/11/20 08:17:31;;;;;;;16.10;11.68;;;0.90;99.90;;;;;;5105743;28;20143;-84
2022/11/20 08:19:58;;;;;;;15.73;11.68;;;0.90;99.90;;;;;;5071055;28;20136;-82
2022/11/20 08:22:25;;;;;;;18.65;11.20;;;0.70;99.90;;;;;;5085346;28;20127;-81
2022/11/20 08:24:50;;;;;;;14.85;11.07;;;0.90;99.90;;;;;;5065029;28;20048;-80
2022/11/20 08:27:16;;;;;;;15.48;10.90;;;0.90;99.90;;;;;;5087955;28;20056;-84
2022/11/20 08:29:41;;;;;;;15.70;11.10;;;0.90;99.90;;;;;;5082421;28;20040;-85
2022/11/20 08:32:07;;;;;;;14.43;10.75;;;0.90;99.90;;;;;;5072737;28;20455;-82
2022/11/20 08:34:33;;;;;;;15.38;11.32;;;1.00;99.90;;;;;;5086870;28;20032;-82
2022/11/20 08:36:58;;;;;;;15.18;10.80;;;1.00;99.90;;;;;;5087967;28;20160;-83
2022/11/20 08:39:24;;;;;;;16.80;11.43;;;0.90;99.90;;;;;;5070819;28;20032;-84
2022/11/20 08:41:50;;;;;;;15.35;10.98;;;0.90;99.90;;;;;;5070478;28;20523;-78
2022/11/20 08:44:17;;;;;;;15.88;10.70;;;0.90;99.90;;;;;;5074058;28;20445;-81
2022/11/20 08:46:45;;;;;;;15.30;10.68;;;1.00;99.90;;;;;;5087477;28;20129;-78
2022/11/20 08:49:12;;;;;;;15.60;11.43;;;1.10;99.90;;;;;;5082554;28;21607;-81
2022/11/20 08:51:39;;;;;;;15.40;11.18;;;1.10;99.90;;;;;;5114869;27;20147;-81
2022/11/20 08:54:05;;;;;;;15.75;11.07;;;0.90;99.90;;;;;;5101612;28;20036;-81
2022/11/20 08:56:31;;;;;;;16.80;12.60;;;1.10;99.90;;;;;;5062384;28;20534;-80
2022/11/20 08:58:59;;;;;;;15.73;11.45;;;1.10;99.90;;;;;;5084424;28;20447;-82
2022/11/20 09:01:25;;;;;;;16.30;11.52;;;1.10;99.90;;;;;;5084621;28;20070;-80
2022/11/20 09:03:51;;;;;;;18.48;13.68;;;1.10;99.90;;;;;;5083906;28;20043;-81
2022/11/20 09:06:18;;;;;;;21.42;13.20;;;1.10;99.90;;;;;;5082301;28;20047;-79
2022/11/20 09:08:43;;;;;;;16.73;11.25;;;1.10;99.90;;;;;;5063671;28;20032;-79
2022/11/20 09:11:09;;;;;;;15.50;11.52;;;1.10;99.90;;;;;;5118150;27;20050;-79
2022/11/20 09:13:36;;;;;;;16.75;12.13;;;1.20;99.90;;;;;;5088978;28;20027;-81
2022/11/20 09:16:05;;;;;;;18.92;12.57;;;1.20;99.90;;;;;;5093502;28;20054;-79
2022/11/20 09:18:32;;;;;;;21.13;13.68;;;1.20;99.90;;;;;;5072410;28;20040;-79
2022/11/20 09:20:59;;;;;;;22.50;15.40;;;1.10;99.90;;;;;;5087627;28;20044;-78
2022/11/20 09:23:26;;;;;;;15.70;11.02;;;1.30;99.90;;;;;;5085330;28;20036;-78
2022/11/20 09:25:52;;;;;;;14.90;10.65;;;1.20;99.90;;;;;;5070371;28;20075;-81
2022/11/20 09:28:19;;;;;;;15.77;11.50;;;1.30;99.90;;;;;;5113875;27;20349;-77
2022/11/20 09:30:45;;;;;;;17.77;12.00;;;1.20;99.90;;;;;;5058090;28;20055;-80
2022/11/20 09:33:11;;;;;;;18.20;10.70;;;1.20;99.90;;;;;;5085844;28;20032;-85
2022/11/20 09:35:36;;;;;;;15.52;11.23;;;1.30;99.90;;;;;;5081325;28;20036;-83
2022/11/20 09:38:10;;;;;;;14.52;10.48;;;1.40;99.90;;;;;;5065336;28;20455;-82
2022/11/20 09:40:39;;;;;;;14.20;10.52;;;1.40;99.90;;;;;;5098218;27;20047;-81
2022/11/20 09:43:17;;;;;;;14.57;10.35;;;1.40;99.90;;;;;;5082521;28;20044;-85
2022/11/20 09:46:10;;;;;;;16.42;10.35;;;1.40;99.90;;;;;;5113527;27;20044;-84
2022/11/20 09:48:50;;;;;;;14.13;10.25;;;1.50;99.90;;;;;;5108155;27;20051;-85
2022/11/20 09:51:38;;;;;;;14.45;10.68;;;1.40;99.90;;;;;;5081172;28;20051;-86
2022/11/20 09:54:17;;;;;;;14.02;10.48;;;1.50;99.90;;;;;;5115150;27;20126;-82
2022/11/20 09:56:48;;;;;;;18.35;10.55;;;1.60;99.90;;;;;;5062757;28;20532;-84
2022/11/20 10:00:07;;;;;;;14.07;10.55;;;1.60;99.90;;;;;;5081419;28;20455;-82
2022/11/20 10:02:55;;;;;;;15.18;9.88;;;1.70;99.90;;;;;;5002025;28;20100;-85
2022/11/20 10:05:44;;;;;;;13.80;10.02;;;1.70;99.90;;;;;;4971735;28;20104;-82
2022/11/20 10:08:18;;;;;;;13.15;9.40;;;1.60;99.90;;;;;;4968044;28;20048;-80
2022/11/20 10:10:49;;;;;;;13.90;9.90;;;1.80;99.90;;;;;;4967405;28;20100;-83
2022/11/20 10:13:42;;;;;;;13.15;9.43;;;1.70;99.90;;;;;;4969314;28;20084;-84
2022/11/20 10:16:36;;;;;;;13.98;9.35;;;1.70;99.90;;;;;;5000409;28;20033;-83
2022/11/20 10:19:39;;;;;;;15.38;9.30;;;1.70;99.90;;;;;;4980784;28;21705;-81
2022/11/20 10:22:31;;;;;;;17.08;9.70;;;1.80;99.90;;;;;;4999210;28;20050;-82
2022/11/20 10:25:18;;;;;;;13.93;10.20;;;1.90;99.90;;;;;;4998289;28;20195;-81
2022/11/20 10:27:49;;;;;;;13.60;10.35;;;1.90;99.90;;;;;;4985561;28;20050;-83
2022/11/20 10:30:18;;;;;;;13.50;9.38;;;2.10;99.90;;;;;;4982687;28;20138;-84
2022/11/20 10:33:00;;;;;;;14.05;9.98;;;2.20;99.90;;;;;;4980948;28;20056;-84
2022/11/20 10:35:38;;;;;;;12.45;9.65;;;2.30;99.90;;;;;;4980370;28;20104;-83
2022/11/20 10:38:11;;;;;;;13.18;8.98;;;2.30;99.90;;;;;;4991639;28;20065;-82
2022/11/20 10:40:45;;;;;;;17.77;9.98;;;2.30;99.90;;;;;;5083209;28;20052;-81
2022/11/20 10:43:17;;;;;;;15.80;10.00;;;2.20;99.90;;;;;;5084637;28;20047;-84
2022/11/20 10:46:14;;;;;;;13.05;9.27;;;2.30;99.90;;;;;;5100344;28;20455;-82
2022/11/20 10:48:44;;;;;;;11.85;9.13;;;2.40;99.90;;;;;;5087326;28;20040;-83
2022/11/20 10:51:22;;;;;;;11.93;8.98;;;2.50;99.90;;;;;;5087357;28;20055;-85
2022/11/20 10:54:03;;;;;;;16.88;9.35;;;2.60;99.90;;;;;;5089534;28;20036;-82
2022/11/20 10:56:28;;;;;;;14.80;11.10;;;2.60;99.90;;;;;;5088759;28;20431;-83
2022/11/20 10:59:00;;;;;;;13.00;9.40;;;2.60;99.90;;;;;;5069590;28;20048;-81
2022/11/20 11:01:26;;;;;;;15.20;10.13;;;2.60;99.90;;;;;;5087510;28;20048;-83
2022/11/20 11:03:54;;;;;;;12.63;9.93;;;2.60;99.90;;;;;;5085558;28;20517;-83
2022/11/20 11:06:32;;;;;;;10.73;9.00;;;2.60;99.90;;;;;;5087270;28;20424;-81
2022/11/20 11:09:03;;;;;;;11.90;9.40;;;2.60;99.90;;;;;;5095908;28;20084;-81
2022/11/20 11:11:33;;;;;;;12.18;8.60;;;2.60;99.90;;;;;;5083653;28;20055;-82
2022/11/20 11:14:09;;;;;;;11.98;8.60;;;2.50;99.90;;;;;;5096301;27;20057;-81
2022/11/20 11:16:35;;;;;;;14.43;9.65;;;2.50;99.90;;;;;;5090255;28;20387;-85
2022/11/20 11:19:19;;;;;;;11.13;8.85;;;2.40;99.90;;;;;;5056370;28;20037;-82
2022/11/20 11:21:56;;;;;;;12.52;9.23;;;2.40;99.90;;;;;;5091752;28;20036;-83
2022/11/20 11:24:23;;;;;;;11.30;8.48;;;2.40;99.90;;;;;;5075411;28;20435;-81
2022/11/20 11:26:58;;;;;;;12.07;8.77;;;2.40;99.90;;;;;;5100772;28;20055;-83
2022/11/20 11:29:26;;;;;;;12.38;8.55;;;2.40;99.90;;;;;;5075464;28;20118;-80
2022/11/20 11:32:05;;;;;;;15.18;8.52;;;2.40;99.90;;;;;;5074402;28;20088;-83
2022/11/20 11:34:31;;;;;;;13.30;9.77;;;2.40;99.90;;;;;;5076678;28;20044;-82
2022/11/20 11:37:00;;;;;;;13.40;9.95;;;2.50;99.90;;;;;;5076862;28;20032;-83
2022/11/20 11:39:28;;;;;;;13.30;9.02;;;2.50;99.90;;;;;;5095104;28;20187;-79
2022/11/20 11:41:54;;;;;;;11.05;8.60;;;2.50;99.90;;;;;;5099350;28;20044;-82
2022/11/20 11:47:27;;;;;;;13.65;8.95;;;2.50;99.90;;;;;;5097431;28;20040;-80
2022/11/20 11:50:08;;;;;;;11.10;8.25;;;2.50;99.90;;;;;;5066292;28;20139;-80
2022/11/20 11:52:48;;;;;;;12.77;8.50;;;2.50;99.90;;;;;;5092997;28;20493;-81
2022/11/20 11:55:33;;;;;;;10.10;8.30;;;2.40;99.90;;;;;;5075622;28;20040;-84
2022/11/20 11:58:40;;;;;;;10.25;7.72;;;2.40;99.90;;;;;;5075101;28;20069;-82
2022/11/20 12:01:32;;;;;;;11.20;7.57;;;2.40;99.90;;;;;;5073285;28;20063;-80
2022/11/20 12:04:35;;;;;;;12.57;7.45;;;2.40;99.90;;;;;;5073429;28;20051;-85
2022/11/20 12:07:14;;;;;;;11.23;7.47;;;2.40;99.90;;;;;;5068534;28;20036;-85
2022/11/20 12:09:49;;;;;;;10.27;7.25;;;2.50;99.90;;;;;;5075661;28;20113;-80
2022/11/20 12:12:29;;;;;;;10.55;7.07;;;2.60;99.90;;;;;;5080687;28;20394;-80
2022/11/20 12:18:07;;;;;;;8.63;6.57;;;2.80;99.90;;;;;;5078985;28;20043;-84
2022/11/20 12:20:42;;;;;;;9.38;6.57;;;2.80;99.90;;;;;;5092311;28;20036;-84
2022/11/20 12:23:44;;;;;;;8.20;5.95;;;3.00;99.90;;;;;;5113076;28;20431;-82
2022/11/20 12:26:35;;;;;;;7.72;5.70;;;3.10;99.90;;;;;;5090948;28;20402;-85
2022/11/20 12:29:30;;;;;;;7.00;5.22;;;3.10;99.90;;;;;;5090001;28;20280;-82
2022/11/20 12:32:20;;;;;;;7.00;4.95;;;3.20;99.90;;;;;;5093354;28;20050;-81
2022/11/20 12:35:07;;;;;;;8.50;4.63;;;3.50;99.90;;;;;;5075354;28;20325;-84
2022/11/20 12:38:10;;;;;;;6.65;4.15;;;3.60;99.90;;;;;;5073943;28;20048;-82
2022/11/20 12:40:43;;;;;;;5.10;4.05;;;3.70;99.90;;;;;;5115806;27;20495;-81
2022/11/20 12:46:27;;;;;;;5.32;4.40;;;3.60;99.90;;;;;;5091962;28;20070;-83
2022/11/20 12:49:19;;;;;;;5.57;4.32;;;3.50;99.90;;;;;;5073950;28;20044;-82
2022/11/20 12:51:55;;;;;;;5.80;4.00;;;3.50;99.90;;;;;;5074327;28;20044;-82
2022/11/20 12:54:20;;;;;;;5.53;3.92;;;3.50;99.90;;;;;;5074624;28;20040;-82
2022/11/20 12:57:07;;;;;;;7.10;4.15;;;3.50;99.90;;;;;;5075872;28;20047;-84
2022/11/20 12:59:59;;;;;;;6.78;4.40;;;3.40;99.90;;;;;;5095769;28;20131;-82
2022/11/20 13:02:55;;;;;;;6.40;4.38;;;3.30;99.90;;;;;;5093474;28;20036;-83
2022/11/20 13:05:54;;;;;;;5.40;4.50;;;3.40;99.90;;;;;;5078500;28;20048;-84
2022/11/20 13:08:27;;;;;;;14.45;7.80;;;3.40;99.90;;;;;;5093874;28;20052;-83
2022/11/20 13:11:12;;;;;;;11.75;6.65;;;3.40;99.90;;;;;;5093830;28;20051;-87
2022/11/20 13:14:10;;;;;;;25.92;9.68;;;3.40;99.90;;;;;;5090532;28;20047;-83